createdAt,value
2022-09-17T00:03:48.935Z,14.3
2022-09-17T00:08:51.085Z,14.3
2022-09-17T00:13:53.817Z,14.3
2022-09-17T00:18:56.287Z,14.2
2022-09-17T00:23:58.294Z,14.2
2022-09-17T00:29:00.907Z,14.2
2022-09-17T00:34:02.976Z,14.1
2022-09-17T00:39:04.858Z,14.1
2022-09-17T00:44:06.786Z,14.1
2022-09-17T00:49:08.850Z,14.1
2022-09-17T00:54:10.734Z,14
2022-09-17T00:59:12.781Z,14
2022-09-17T01:04:15.216Z,14
2022-09-17T01:09:17.624Z,14
2022-09-17T01:14:20.019Z,14
2022-09-17T01:19:22.100Z,14
2022-09-17T01:24:24.084Z,13.9
2022-09-17T01:29:26.141Z,13.9
2022-09-17T01:34:28.589Z,13.8
2022-09-17T01:39:30.636Z,13.8
2022-09-17T01:44:32.700Z,13.8
2022-09-17T01:49:34.780Z,13.8
2022-09-17T01:54:43.582Z,13.8
2022-09-17T01:59:45.567Z,13.8
2022-09-17T02:04:47.652Z,13.7
2022-09-17T02:09:49.744Z,13.7
2022-09-17T02:14:51.697Z,13.7
2022-09-17T02:19:53.774Z,13.7
2022-09-17T02:24:55.760Z,13.5
2022-09-17T02:29:57.678Z,13.5
2022-09-17T02:34:59.761Z,13.4
2022-09-17T02:40:02.271Z,13.4
2022-09-17T02:45:04.290Z,13.3
2022-09-17T02:50:06.679Z,13.3
2022-09-17T02:55:08.662Z,13.3
2022-09-17T03:00:10.641Z,13.3
2022-09-17T03:05:13.354Z,13.2
2022-09-17T03:10:18.457Z,13.2
2022-09-17T03:15:20.429Z,13.2
2022-09-17T03:20:22.576Z,13.1
2022-09-17T03:25:24.617Z,13.1
2022-09-17T03:30:26.541Z,13.1
2022-09-17T03:35:28.581Z,13.1
2022-09-17T03:40:30.745Z,13.1
2022-09-17T03:45:32.849Z,13.1
2022-09-17T03:55:35.969Z,13
2022-09-17T04:00:38.009Z,13
2022-09-17T04:05:40.035Z,13.1
2022-09-17T04:10:42.125Z,13
2022-09-17T04:15:44.297Z,13
2022-09-17T04:20:46.596Z,13
2022-09-17T04:25:48.685Z,13.1
2022-09-17T04:30:51.144Z,13.1
2022-09-17T04:35:53.226Z,13.2
2022-09-17T04:40:55.150Z,13.1
2022-09-17T04:45:57.046Z,13.2
2022-09-17T04:50:59.187Z,13.1
2022-09-17T04:56:01.176Z,13.1
2022-09-17T05:01:03.609Z,13.1
2022-09-17T05:06:06.341Z,13.1
2022-09-17T05:11:08.677Z,13
2022-09-17T05:16:10.901Z,13
2022-09-17T05:26:13.891Z,13
2022-09-17T05:31:19.208Z,13.1
2022-09-17T05:36:23.353Z,13.1
2022-09-17T05:41:25.370Z,13.1
2022-09-17T05:46:27.645Z,13
2022-09-17T05:51:29.694Z,13
2022-09-17T05:56:31.706Z,13.1
2022-09-17T06:01:33.859Z,13.1
2022-09-17T06:06:35.915Z,13.1
2022-09-17T06:11:38.029Z,13.1
2022-09-17T06:16:40.249Z,13.4
2022-09-17T06:21:42.520Z,13.5
2022-09-17T06:26:44.628Z,13.6
2022-09-17T06:31:52.966Z,13.5
2022-09-17T06:36:55.271Z,13.4
2022-09-17T06:41:57.362Z,13.2
2022-09-17T06:47:05.749Z,13.4
2022-09-17T06:52:00.614Z,13.4
2022-09-17T06:57:02.599Z,13.5
2022-09-17T07:02:05.074Z,13.2
2022-09-17T07:07:07.315Z,13.6
2022-09-17T07:12:10.191Z,14.1
2022-09-17T07:17:12.186Z,14.3
2022-09-17T07:22:14.222Z,14.2
2022-09-17T07:27:16.554Z,14.2
2022-09-17T07:32:18.686Z,14
2022-09-17T07:37:20.894Z,14
2022-09-17T07:42:22.925Z,13.7
2022-09-17T07:47:24.787Z,13.7
2022-09-17T07:52:26.956Z,13.7
2022-09-17T07:57:28.974Z,13.6
2022-09-17T08:02:31.467Z,13.4
2022-09-17T08:07:34.244Z,14
2022-09-17T08:12:41.749Z,14.1
2022-09-17T08:17:43.835Z,14.1
2022-09-17T08:22:51.736Z,13.6
2022-09-17T08:27:53.932Z,13.6
2022-09-17T08:32:55.897Z,13.6
2022-09-17T08:37:57.891Z,13.7
2022-09-17T08:42:59.862Z,13.8
2022-09-17T08:48:01.845Z,13.8
2022-09-17T08:53:03.769Z,13.8
2022-09-17T08:58:05.671Z,13.8
2022-09-17T09:03:07.682Z,14
2022-09-17T09:08:10.010Z,14
2022-09-17T09:13:12.135Z,14.1
2022-09-17T09:18:14.154Z,14.5
2022-09-17T09:23:16.842Z,15.5
2022-09-17T09:28:18.802Z,15.4
2022-09-17T09:33:20.866Z,14.8
2022-09-17T09:38:23.310Z,15
2022-09-17T09:43:59.794Z,15.3
2022-09-17T09:48:26.490Z,15.3
2022-09-17T09:53:28.607Z,15.3
2022-09-17T09:58:30.529Z,15.4
2022-09-17T10:03:32.485Z,15.1
2022-09-17T10:08:34.449Z,15.3
2022-09-17T10:13:36.589Z,15.5
2022-09-17T10:18:38.999Z,16.8
2022-09-17T10:23:41.079Z,16.7
2022-09-17T10:28:43.072Z,17.5
2022-09-17T10:33:45.056Z,18.9
2022-09-17T10:38:47.575Z,21.2
2022-09-17T10:43:49.622Z,21.2
2022-09-17T10:48:51.577Z,22.7
2022-09-17T10:53:53.623Z,21.4
2022-09-17T10:58:55.926Z,19.4
2022-09-17T11:03:57.962Z,18.6
2022-09-17T11:09:00.016Z,17.9
2022-09-17T11:14:02.148Z,17.5
2022-09-17T11:19:04.124Z,17.2
2022-09-17T11:24:06.566Z,16.8
2022-09-17T11:29:08.951Z,16.4
2022-09-17T11:34:11.137Z,16.1
2022-09-17T11:39:13.402Z,15.9
2022-09-17T11:44:15.404Z,15.7
2022-09-17T11:49:17.367Z,15.8
2022-09-17T11:54:19.803Z,16.1
2022-09-17T11:59:21.952Z,16
2022-09-17T12:04:23.982Z,16.3
2022-09-17T12:09:26.657Z,16.6
2022-09-17T12:14:28.848Z,16.6
2022-09-17T12:19:30.790Z,17
2022-09-17T12:24:32.744Z,17.3
2022-09-17T12:29:34.655Z,17.3
2022-09-17T12:34:36.545Z,17.2
2022-09-17T12:39:38.598Z,16.6
2022-09-17T12:44:40.504Z,16.9
2022-09-17T12:49:42.425Z,16.2
2022-09-17T12:54:47.230Z,15.4
2022-09-17T12:59:49.451Z,15.4
2022-09-17T13:05:03.524Z,15.1
2022-09-17T13:09:55.562Z,15.1
2022-09-17T13:14:57.558Z,15.1
2022-09-17T13:20:00.041Z,15.3
2022-09-17T13:25:02.064Z,15.2
2022-09-17T13:30:04.019Z,15.1
2022-09-17T13:35:08.772Z,14.7
2022-09-17T13:40:11.155Z,14.7
2022-09-17T13:45:15.336Z,14.3
2022-09-17T13:50:17.257Z,14.3
2022-09-17T13:55:19.420Z,14.1
2022-09-17T14:00:21.661Z,13.9
2022-09-17T14:05:24.201Z,13.6
2022-09-17T14:10:26.460Z,13.5
2022-09-17T14:15:28.441Z,13.5
2022-09-17T14:20:30.518Z,13.3
2022-09-17T14:25:32.674Z,13
2022-09-17T14:30:34.701Z,13.1
2022-09-17T14:35:36.682Z,12.8
2022-09-17T14:40:38.771Z,12.8
2022-09-17T14:45:40.954Z,12.6
2022-09-17T14:50:42.950Z,12.5
2022-09-17T14:55:44.922Z,12.4
2022-09-17T15:00:47.916Z,12.4
2022-09-17T15:05:50.396Z,12.4
2022-09-17T15:10:52.445Z,12.4
2022-09-17T15:15:54.717Z,12.2
2022-09-17T15:20:56.958Z,12.1
2022-09-17T15:25:59.002Z,11.9
2022-09-17T15:31:01.242Z,11.9
2022-09-17T15:36:03.464Z,12
2022-09-17T15:41:05.454Z,11.9
2022-09-17T15:46:07.894Z,12
2022-09-17T15:51:10.188Z,11.9
2022-09-17T15:56:12.167Z,11.9
2022-09-17T16:01:14.141Z,11.8
2022-09-17T16:06:16.215Z,11.7
2022-09-17T16:11:18.154Z,11.7
2022-09-17T16:16:20.330Z,11.6
2022-09-17T16:21:22.509Z,11.6
2022-09-17T16:26:24.587Z,11.6
2022-09-17T16:31:26.740Z,11.6
2022-09-17T16:36:29.122Z,11.5
2022-09-17T16:41:32.113Z,11.5
2022-09-17T16:46:34.303Z,11.3
2022-09-17T16:51:36.483Z,11.4
2022-09-17T16:56:38.469Z,11.5
2022-09-17T17:01:40.837Z,11.5
2022-09-17T17:06:43.016Z,11.5
2022-09-17T17:11:45.056Z,11.6
2022-09-17T17:16:46.974Z,11.6
2022-09-17T17:21:51.872Z,11.6
2022-09-17T17:26:54.573Z,11.5
2022-09-17T17:31:56.541Z,11.4
2022-09-17T17:36:58.491Z,11.4
2022-09-17T17:42:00.485Z,11.3
2022-09-17T17:47:03.770Z,11.6
2022-09-17T17:52:05.915Z,11.6
2022-09-17T17:57:07.857Z,11.7
2022-09-17T18:02:10.553Z,11.7
2022-09-17T18:07:12.685Z,11.7
2022-09-17T18:12:14.711Z,11.6
2022-09-17T18:17:16.694Z,11.4
2022-09-17T18:22:18.637Z,11.3
2022-09-17T18:27:20.722Z,11.1
2022-09-17T18:32:22.906Z,11.1
2022-09-17T18:37:24.898Z,11
2022-09-17T18:42:27.368Z,10.8
2022-09-17T18:47:29.330Z,10.8
2022-09-17T18:52:31.421Z,10.8
2022-09-17T18:57:33.446Z,10.8
2022-09-17T19:02:35.389Z,10.8
2022-09-17T19:07:37.547Z,10.7
2022-09-17T19:12:39.516Z,10.7
2022-09-17T19:17:41.752Z,10.7
2022-09-17T19:22:43.930Z,10.6
2022-09-17T19:27:46.206Z,10.7
2022-09-17T19:32:48.199Z,10.6
2022-09-17T19:37:50.895Z,10.6
2022-09-17T19:42:52.823Z,10.6
2022-09-17T19:47:54.754Z,10.7
2022-09-17T19:52:56.865Z,10.6
2022-09-17T19:57:58.805Z,10.5
2022-09-17T20:03:00.916Z,10.5
2022-09-17T20:08:05.673Z,10.4
2022-09-17T20:13:07.613Z,10.4
2022-09-17T20:18:09.594Z,10.4
2022-09-17T20:23:11.705Z,10.5
2022-09-17T20:28:13.895Z,10.5
2022-09-17T20:33:15.875Z,10.6
2022-09-17T20:39:18.155Z,10.6
2022-09-17T20:43:27.558Z,10.6
2022-09-17T20:48:29.667Z,10.6
2022-09-17T20:53:31.795Z,10.6
2022-09-17T20:58:33.774Z,10.6
2022-09-17T21:03:35.926Z,10.6
2022-09-17T21:08:38.118Z,10.6
2022-09-17T21:13:40.025Z,10.6
2022-09-17T21:18:42.013Z,10.6
2022-09-17T21:23:44.548Z,10.6
2022-09-17T21:28:46.737Z,10.6
2022-09-17T21:33:48.804Z,10.6
2022-09-17T21:38:54.424Z,10.6
2022-09-17T21:43:56.540Z,10.6
2022-09-17T21:48:59.420Z,10.7
2022-09-17T21:54:02.208Z,10.7
2022-09-17T21:59:04.432Z,10.7
2022-09-17T22:04:06.472Z,10.7
2022-09-17T22:09:08.747Z,10.7
2022-09-17T22:14:10.883Z,10.7
2022-09-17T22:19:12.803Z,10.7
2022-09-17T22:24:15.230Z,10.6
2022-09-17T22:29:17.458Z,10.5
2022-09-17T22:34:19.398Z,10.6
2022-09-17T22:39:21.523Z,10.6
2022-09-17T22:44:23.566Z,10.7
2022-09-17T22:49:25.532Z,10.7
2022-09-17T22:54:27.772Z,10.7
2022-09-17T22:59:29.684Z,10.7
2022-09-17T23:04:32.105Z,10.7
2022-09-17T23:09:34.536Z,10.7
2022-09-17T23:14:36.506Z,10.7
2022-09-17T23:19:38.481Z,10.7
2022-09-17T23:24:40.603Z,10.7
2022-09-17T23:29:42.757Z,10.7
2022-09-17T23:34:44.663Z,10.7
2022-09-17T23:39:46.713Z,10.7
2022-09-17T23:44:48.629Z,10.6
2022-09-17T23:49:50.527Z,10.7
2022-09-17T23:54:59.544Z,10.6
